Time;durP1;ratioP1;P1;durP2;ratioP2;P2;SDS_P1;SDS_P2;PMS_P1;PMS_P2;Temp;Humidity;BMP_temperature;BMP_pressure;BME280_temperature;BME280_humidity;BME280_pressure;Samples;Min_cycle;Max_cycle;Signal;HPM_P1;HPM_P2
2022/03/24 00:00:30;;;;;;;94.87;56.33;;;;;;;;;;4407871;32;19933;-76
2022/03/24 00:02:55;;;;;;;;;;;;;;;;;;4406299;32;20042;-76
2022/03/24 00:05:20;;;;;;;98.53;59.63;;;;;;;;;;4402928;32;19952;-77
2022/03/24 00:07:45;;;;;;;;;;;;;;;;;;4403415;32;20122;-77
2022/03/24 00:10:10;;;;;;;100.95;60.78;;;;;;;;;;4401305;32;20343;-77
2022/03/24 00:12:35;;;;;;;;;;;;;;;;;;4401817;32;20149;-76
2022/03/24 00:15:02;;;;;;;111.80;64.87;;;;;;;;;;4403146;32;19941;-77
2022/03/24 00:17:27;;;;;;;106.20;63.75;;;;;;;;;;4402332;32;20057;-77
2022/03/24 00:19:52;;;;;;;;;;;;;;;;;;4402189;32;20087;-77
2022/03/24 00:22:17;;;;;;;112.00;67.20;;;;;;;;;;4413623;32;19996;-76
2022/03/24 00:24:42;;;;;;;;;;;;;;;;;;4414130;32;20022;-76
2022/03/24 00:27:09;;;;;;;105.12;65.80;;;;;;;;;;4413718;32;19968;-76
2022/03/24 00:29:34;;;;;;;110.72;69.25;;;;;;;;;;4402938;32;20023;-77
2022/03/24 00:31:59;;;;;;;;;;;;;;;;;;4402164;32;20084;-77
2022/03/24 00:34:24;;;;;;;112.43;68.45;;;;;;;;;;4400639;32;20109;-77
2022/03/24 00:36:49;;;;;;;;;;;;;;;;;;4402297;32;20429;-77
2022/03/24 00:39:14;;;;;;;113.07;70.32;;;;;;;;;;4400924;32;19983;-77
2022/03/24 00:41:40;;;;;;;;;;;;;;;;;;4402810;32;20485;-77
2022/03/24 00:44:07;;;;;;;119.65;67.80;;;;;;;;;;4401704;32;19989;-77
2022/03/24 00:46:32;;;;;;;109.45;65.80;;;;;;;;;;4402465;32;20030;-76
2022/03/24 00:48:57;;;;;;;;;;;;;;;;;;4401644;32;20396;-77
2022/03/24 00:51:22;;;;;;;111.12;67.55;;;;;;;;;;4402810;32;19961;-77
2022/03/24 00:53:47;;;;;;;;;;;;;;;;;;4402143;32;20251;-77
2022/03/24 00:56:13;;;;;;;120.03;72.25;;;;;;;;;;4402166;32;20053;-77
2022/03/24 00:58:38;;;;;;;112.37;69.93;;;;;;;;;;4403077;32;20246;-77
2022/03/24 01:01:04;;;;;;;;;;;;;;;;;;4401660;32;20503;-77
2022/03/24 01:03:29;;;;;;;131.77;75.35;;;;;;;;;;4401535;32;19977;-77
2022/03/24 01:05:54;;;;;;;;;;;;;;;;;;4400428;32;20408;-77
2022/03/24 01:08:20;;;;;;;124.80;73.40;;;;;;;;;;4400497;32;19976;-76
2022/03/24 01:10:45;;;;;;;;;;;;;;;;;;4403603;32;20056;-76
2022/03/24 01:13:11;;;;;;;126.32;72.60;;;;;;;;;;4403021;32;19952;-76
2022/03/24 01:15:36;;;;;;;;;;;;;;;;;;4402772;32;20097;-76
2022/03/24 01:18:01;;;;;;;135.48;74.35;;;;;;;;;;4403113;32;19933;-76
2022/03/24 01:20:26;;;;;;;;;;;;;;;;;;4400504;32;20400;-76
2022/03/24 01:22:51;;;;;;;124.12;71.72;;;;;;;;;;4402988;32;20031;-76
2022/03/24 01:25:17;;;;;;;133.50;74.10;;;;;;;;;;4402407;32;20163;-77
2022/03/24 01:27:42;;;;;;;;;;;;;;;;;;4404217;32;20095;-77
2022/03/24 01:30:09;;;;;;;130.25;72.87;;;;;;;;;;4400734;32;19952;-76
2022/03/24 01:32:34;;;;;;;116.80;70.70;;;;;;;;;;4402820;32;20081;-76
2022/03/24 01:35:00;;;;;;;138.15;76.37;;;;;;;;;;4403671;32;20389;-76
2022/03/24 01:37:25;;;;;;;;;;;;;;;;;;4401950;32;20018;-76
2022/03/24 01:39:51;;;;;;;118.82;69.10;;;;;;;;;;4403472;32;19941;-76
2022/03/24 01:42:18;;;;;;;124.97;74.65;;;;;;;;;;4405262;32;20034;-76
2022/03/24 01:44:47;;;;;;;120.30;71.60;;;;;;;;;;4408126;32;20030;-77
2022/03/24 01:47:13;;;;;;;118.25;68.70;;;;;;;;;;4410855;32;20294;-77
2022/03/24 01:49:38;;;;;;;;;;;;;;;;;;4408137;32;20049;-77
2022/03/24 01:52:11;;;;;;;133.27;75.85;;;;;;;;;;4405122;32;19989;-76
2022/03/24 01:54:38;;;;;;;126.05;72.10;;;;;;;;;;4402839;32;20457;-77
2022/03/24 01:57:04;;;;;;;122.37;71.35;;;;;;;;;;4402421;32;20026;-77
2022/03/24 01:59:29;;;;;;;;;;;;;;;;;;4402783;32;20088;-76
2022/03/24 02:01:55;;;;;;;119.25;68.07;;;;;;;;;;4405055;32;19938;-76
2022/03/24 02:04:20;;;;;;;;;;;;;;;;;;4404598;32;20324;-77
2022/03/24 02:06:45;;;;;;;106.05;64.72;;;;;;;;;;4410975;32;19934;-77
2022/03/24 02:09:11;;;;;;;115.85;67.40;;;;;;;;;;4418125;32;20157;-76
2022/03/24 02:11:36;;;;;;;;;;;;;;;;;;4408187;32;20402;-77
2022/03/24 02:14:02;;;;;;;109.63;63.05;;;;;;;;;;4404975;32;19996;-76
2022/03/24 02:16:27;;;;;;;;;;;;;;;;;;4403370;32;20026;-77
2022/03/24 02:18:55;;;;;;;118.05;66.87;;;;;;;;;;4404518;32;20011;-78
2022/03/24 02:21:20;;;;;;;112.43;66.87;;;;;;;;;;4403377;32;20436;-76
2022/03/24 02:23:45;;;;;;;114.78;65.37;;;;;;;;;;4403398;32;20030;-76
2022/03/24 02:26:10;;;;;;;;;;;;;;;;;;4404150;32;20058;-76
2022/03/24 02:28:36;;;;;;;111.47;63.15;;;;;;;;;;4404593;32;19934;-76
2022/03/24 02:31:01;;;;;;;;;;;;;;;;;;4402515;32;20394;-77
2022/03/24 02:33:26;;;;;;;116.85;66.32;;;;;;;;;;4402860;32;19983;-76
2022/03/24 02:35:52;;;;;;;;;;;;;;;;;;4403094;32;20061;-76
2022/03/24 02:38:19;;;;;;;119.35;68.95;;;;;;;;;;4401950;32;19952;-76
2022/03/24 02:40:45;;;;;;;123.78;68.60;;;;;;;;;;4402169;32;20146;-76
2022/03/24 02:43:10;;;;;;;;;;;;;;;;;;4404483;32;20066;-76
2022/03/24 02:45:35;;;;;;;124.20;68.95;;;;;;;;;;4401282;32;19952;-77
2022/03/24 02:48:03;;;;;;;;;;;;;;;;;;4403397;32;20086;-76
2022/03/24 02:50:28;;;;;;;125.05;67.50;;;;;;;;;;4401816;32;19972;-76
2022/03/24 02:52:53;;;;;;;;;;;;;;;;;;4401290;32;20470;-76
2022/03/24 02:55:19;;;;;;;135.23;68.85;;;;;;;;;;4402298;32;20035;-77
2022/03/24 02:57:44;;;;;;;;;;;;;;;;;;4403860;32;20415;-77
2022/03/24 03:00:09;;;;;;;119.60;68.85;;;;;;;;;;4402771;32;20004;-76
2022/03/24 03:02:34;;;;;;;;;;;;;;;;;;4401618;32;20082;-76
2022/03/24 03:05:00;;;;;;;121.53;65.15;;;;;;;;;;4402673;32;20018;-76
2022/03/24 03:07:28;;;;;;;123.32;72.18;;;;;;;;;;4403283;32;20030;-76
2022/03/24 03:09:53;;;;;;;130.98;73.53;;;;;;;;;;4401797;32;20054;-76
2022/03/24 03:12:18;;;;;;;124.97;70.37;;;;;;;;;;4401658;32;20096;-77
2022/03/24 03:14:46;;;;;;;;;;;;;;;;;;4403801;32;20164;-76
2022/03/24 03:17:11;;;;;;;137.02;71.93;;;;;;;;;;4402365;32;19941;-76
2022/03/24 03:19:39;;;;;;;;;;;;;;;;;;4404085;32;20514;-76
2022/03/24 03:22:04;;;;;;;121.57;68.78;;;;;;;;;;4402457;32;19968;-77
2022/03/24 03:24:29;;;;;;;;;;;;;;;;;;4401358;32;20347;-76
2022/03/24 03:26:55;;;;;;;123.15;67.65;;;;;;;;;;4403046;32;19948;-76
2022/03/24 03:29:22;;;;;;;;;;;;;;;;;;4402901;32;20060;-77
2022/03/24 03:31:48;;;;;;;127.78;70.50;;;;;;;;;;4402954;32;19995;-77
2022/03/24 03:34:14;;;;;;;132.80;73.07;;;;;;;;;;4401089;32;20030;-77
2022/03/24 03:36:40;;;;;;;127.78;70.97;;;;;;;;;;4401581;32;20148;-77
2022/03/24 03:39:07;;;;;;;135.37;71.93;;;;;;;;;;4399874;32;20050;-77
2022/03/24 03:41:33;;;;;;;125.47;69.68;;;;;;;;;;4401687;32;20230;-76
2022/03/24 03:43:59;;;;;;;116.15;67.80;;;;;;;;;;4401741;32;20034;-76
2022/03/24 03:46:24;;;;;;;;;;;;;;;;;;4401574;32;20084;-77
2022/03/24 03:48:50;;;;;;;126.75;67.15;;;;;;;;;;4411312;32;19977;-76
2022/03/24 03:51:15;;;;;;;136.20;75.55;;;;;;;;;;4403221;32;20407;-77
2022/03/24 03:53:41;;;;;;;;;;;;;;;;;;4401723;32;20297;-77
2022/03/24 03:56:07;;;;;;;123.25;65.45;;;;;;;;;;4401510;32;19957;-77
2022/03/24 03:58:35;;;;;;;128.30;71.45;;;;;;;;;;4401624;32;20029;-77
2022/03/24 04:01:00;;;;;;;128.45;72.05;;;;;;;;;;4401645;32;20027;-77
2022/03/24 04:03:26;;;;;;;129.30;72.22;;;;;;;;;;4401425;32;20169;-77
2022/03/24 04:05:55;;;;;;;124.07;71.57;;;;;;;;;;4401834;32;20065;-77
2022/03/24 04:08:21;;;;;;;120.07;70.30;;;;;;;;;;4402380;32;20030;-77
2022/03/24 04:10:48;;;;;;;112.18;67.97;;;;;;;;;;4403049;32;20076;-76
2022/03/24 04:13:13;;;;;;;123.72;72.65;;;;;;;;;;4400459;32;20085;-76
2022/03/24 04:15:39;;;;;;;143.20;75.20;;;;;;;;;;4403458;32;20111;-76
2022/03/24 04:18:06;;;;;;;;;;;;;;;;;;4406574;32;20147;-77
2022/03/24 04:20:31;;;;;;;127.60;69.97;;;;;;;;;;4413038;32;20049;-77
2022/03/24 04:22:56;;;;;;;;;;;;;;;;;;4405657;32;20136;-77
2022/03/24 04:25:21;;;;;;;123.60;68.62;;;;;;;;;;4404257;32;19960;-78
2022/03/24 04:27:46;;;;;;;;;;;;;;;;;;4401801;32;20026;-77
2022/03/24 04:30:12;;;;;;;145.52;77.00;;;;;;;;;;4402049;32;19993;-77
2022/03/24 04:32:37;;;;;;;;;;;;;;;;;;4403586;32;20298;-77
2022/03/24 04:35:02;;;;;;;135.93;74.22;;;;;;;;;;4401663;32;19944;-77
2022/03/24 04:37:27;;;;;;;;;;;;;;;;;;4400849;32;20026;-77
2022/03/24 04:39:52;;;;;;;128.68;73.97;;;;;;;;;;4400597;32;19937;-77
2022/03/24 04:42:17;;;;;;;;;;;;;;;;;;4402756;32;20021;-78
2022/03/24 04:44:42;;;;;;;136.05;72.00;;;;;;;;;;4401120;32;19970;-77
2022/03/24 04:47:08;;;;;;;;;;;;;;;;;;4401977;32;20399;-77
2022/03/24 04:49:33;;;;;;;142.15;74.97;;;;;;;;;;4401850;32;20275;-77
2022/03/24 04:51:58;;;;;;;;;;;;;;;;;;4401579;32;20035;-77
2022/03/24 04:54:23;;;;;;;145.10;75.55;;;;;;;;;;4400409;32;19948;-77
2022/03/24 04:56:48;;;;;;;;;;;;;;;;;;4402173;32;20145;-76
2022/03/24 04:59:14;;;;;;;147.48;74.05;;;;;;;;;;4402035;32;20288;-77
2022/03/24 05:01:40;;;;;;;;;;;;;;;;;;4403383;32;20136;-76
2022/03/24 05:04:05;;;;;;;139.07;76.53;;;;;;;;;;4403282;32;19937;-77
2022/03/24 05:06:33;;;;;;;146.50;77.90;;;;;;;;;;4403745;32;20106;-77
2022/03/24 05:08:58;;;;;;;137.27;74.12;;;;;;;;;;4404241;32;20517;-77
2022/03/24 05:11:24;;;;;;;129.43;74.67;;;;;;;;;;4405371;32;20051;-77
2022/03/24 05:13:51;;;;;;;140.00;75.77;;;;;;;;;;4403776;32;20177;-77
2022/03/24 05:16:18;;;;;;;143.65;75.72;;;;;;;;;;4403971;32;20126;-77
2022/03/24 05:18:43;;;;;;;;;;;;;;;;;;4404615;32;20412;-77
2022/03/24 05:21:08;;;;;;;137.25;75.35;;;;;;;;;;4403795;32;20283;-77
2022/03/24 05:23:33;;;;;;;;;;;;;;;;;;4403178;32;20026;-77
2022/03/24 05:25:59;;;;;;;131.63;71.25;;;;;;;;;;4402833;32;20029;-77
2022/03/24 05:28:24;;;;;;;;;;;;;;;;;;4403391;32;20130;-77
2022/03/24 05:30:49;;;;;;;130.87;68.22;;;;;;;;;;4414872;32;19971;-77
2022/03/24 05:33:15;;;;;;;;;;;;;;;;;;4405531;32;20421;-77
2022/03/24 05:35:40;;;;;;;140.95;72.28;;;;;;;;;;4404762;32;19933;-77
2022/03/24 05:38:05;;;;;;;;;;;;;;;;;;4404299;32;20076;-77
2022/03/24 05:40:31;;;;;;;129.32;70.45;;;;;;;;;;4402888;32;19990;-77
2022/03/24 05:42:56;;;;;;;;;;;;;;;;;;4405507;32;20091;-78
2022/03/24 05:45:21;;;;;;;128.45;70.45;;;;;;;;;;4404431;32;19997;-78
2022/03/24 05:47:47;;;;;;;;;;;;;;;;;;4403585;32;20057;-78
2022/03/24 05:50:13;;;;;;;127.55;68.22;;;;;;;;;;4404871;32;20015;-77
2022/03/24 05:52:39;;;;;;;124.78;68.65;;;;;;;;;;4403914;32;20038;-77
2022/03/24 05:55:04;;;;;;;126.03;69.82;;;;;;;;;;4397848;32;20050;-77
2022/03/24 05:57:29;;;;;;;;;;;;;;;;;;4400358;32;20116;-77
2022/03/24 05:59:54;;;;;;;119.03;66.18;;;;;;;;;;4405069;32;19967;-77
2022/03/24 06:02:20;;;;;;;;;;;;;;;;;;4404702;32;20053;-77
2022/03/24 06:04:46;;;;;;;120.68;67.45;;;;;;;;;;4403299;32;19947;-77
2022/03/24 06:07:11;;;;;;;;;;;;;;;;;;4403734;32;20049;-77
2022/03/24 06:09:36;;;;;;;113.90;60.63;;;;;;;;;;4404801;32;20024;-76
2022/03/24 06:12:02;;;;;;;120.75;66.82;;;;;;;;;;4402286;32;20122;-77
2022/03/24 06:14:27;;;;;;;;;;;;;;;;;;4390589;32;20023;-78
2022/03/24 06:16:52;;;;;;;118.43;61.30;;;;;;;;;;4404156;32;19933;-77
2022/03/24 06:19:18;;;;;;;;;;;;;;;;;;4402395;32;20344;-77
2022/03/24 06:21:44;;;;;;;108.72;62.70;;;;;;;;;;4403177;32;19981;-76
2022/03/24 06:24:09;;;;;;;107.18;63.67;;;;;;;;;;4403367;32;20393;-75
2022/03/24 06:26:35;;;;;;;128.95;66.68;;;;;;;;;;4403619;32;20019;-76
2022/03/24 06:29:01;;;;;;;;;;;;;;;;;;4405161;32;20047;-76
2022/03/24 06:31:27;;;;;;;114.22;60.08;;;;;;;;;;4409216;32;19970;-76
2022/03/24 06:33:53;;;;;;;106.28;60.15;;;;;;;;;;4414607;32;20093;-77
2022/03/24 06:36:18;;;;;;;105.75;61.10;;;;;;;;;;4416048;32;20026;-76
2022/03/24 06:38:44;;;;;;;;;;;;;;;;;;4414844;32;20048;-77
2022/03/24 06:41:09;;;;;;;109.68;61.47;;;;;;;;;;4409462;32;19980;-76
2022/03/24 06:43:34;;;;;;;;;;;;;;;;;;4405215;32;20023;-77
2022/03/24 06:46:00;;;;;;;100.32;56.60;;;;;;;;;;4403193;32;19933;-76
2022/03/24 06:48:25;;;;;;;;;;;;;;;;;;4404906;32;20065;-78
2022/03/24 06:50:51;;;;;;;119.75;56.83;;;;;;;;;;4402595;32;19999;-77
2022/03/24 06:53:17;;;;;;;125.70;59.72;;;;;;;;;;4402030;32;20065;-78
2022/03/24 06:55:42;;;;;;;102.30;57.88;;;;;;;;;;4401562;32;20165;-77
2022/03/24 06:58:08;;;;;;;95.97;54.50;;;;;;;;;;4400269;32;20223;-77
2022/03/24 07:00:33;;;;;;;;;;;;;;;;;;4401034;32;20202;-77
2022/03/24 07:02:58;;;;;;;99.43;55.53;;;;;;;;;;4401878;32;19980;-77
2022/03/24 07:05:24;;;;;;;;;;;;;;;;;;4406801;32;20392;-77
2022/03/24 07:07:49;;;;;;;102.28;54.80;;;;;;;;;;4405109;32;19971;-77
2022/03/24 07:10:15;;;;;;;;;;;;;;;;;;4408928;32;20030;-77
2022/03/24 07:12:40;;;;;;;97.40;52.35;;;;;;;;;;4407533;32;19952;-77
2022/03/24 07:15:08;;;;;;;;;;;;;;;;;;4407173;32;20464;-76
2022/03/24 07:17:34;;;;;;;116.57;53.45;;;;;;;;;;4403719;32;19937;-77
2022/03/24 07:20:00;;;;;;;94.55;50.12;;;;;;;;;;4406231;32;20087;-78
2022/03/24 07:22:25;;;;;;;;;;;;;;;;;;4404246;32;20098;-77
2022/03/24 07:24:50;;;;;;;83.95;46.28;;;;;;;;;;4403978;32;19977;-77
2022/03/24 07:27:15;;;;;;;;;;;;;;;;;;4403422;32;20031;-78
2022/03/24 07:29:41;;;;;;;69.60;42.65;;;;;;;;;;4404815;32;19933;-77
2022/03/24 07:32:07;;;;;;;;;;;;;;;;;;4391589;32;20022;-77
2022/03/24 07:34:33;;;;;;;78.15;43.90;;;;;;;;;;4403919;32;19956;-77
2022/03/24 07:36:58;;;;;;;;;;;;;;;;;;4404389;32;20026;-75
2022/03/24 07:39:23;;;;;;;90.18;45.70;;;;;;;;;;4403847;32;20280;-76
2022/03/24 07:41:48;;;;;;;;;;;;;;;;;;4405852;32;20030;-77
2022/03/24 07:44:13;;;;;;;66.22;37.75;;;;;;;;;;4404625;32;19937;-76
2022/03/24 07:46:38;;;;;;;;;;;;;;;;;;4402601;32;20069;-77
2022/03/24 07:49:04;;;;;;;59.13;34.60;;;;;;;;;;4404791;32;19953;-77
2022/03/24 07:51:29;;;;;;;;;;;;;;;;;;4406217;32;20074;-77
2022/03/24 07:53:58;;;;;;;67.20;37.88;;;;;;;;;;4404495;32;19941;-77
2022/03/24 07:56:24;;;;;;;61.30;36.25;;;;;;;;;;4407173;32;20404;-77
2022/03/24 07:58:50;;;;;;;68.15;36.72;;;;;;;;;;4403993;32;20095;-77
2022/03/24 08:01:23;;;;;;;59.75;33.25;;;;;;;;;;4404737;32;20084;-77
2022/03/24 08:03:50;;;;;;;60.35;34.83;;;;;;;;;;4407079;32;20023;-77
2022/03/24 08:06:16;;;;;;;64.15;32.95;;;;;;;;;;4408724;32;20030;-76
2022/03/24 08:08:41;;;;;;;;;;;;;;;;;;4406849;32;20398;-77
2022/03/24 08:11:07;;;;;;;47.30;29.00;;;;;;;;;;4406102;32;19952;-78
2022/03/24 08:13:33;;;;;;;52.15;28.60;;;;;;;;;;4405454;32;20399;-76
2022/03/24 08:15:58;;;;;;;;;;;;;;;;;;4405559;32;20095;-76
2022/03/24 08:18:23;;;;;;;50.03;29.98;;;;;;;;;;4405066;32;19968;-76
2022/03/24 08:20:49;;;;;;;;;;;;;;;;;;4405552;32;20340;-76
2022/03/24 08:23:14;;;;;;;57.38;31.08;;;;;;;;;;4404696;32;20228;-77
2022/03/24 08:25:40;;;;;;;;;;;;;;;;;;4405765;32;20348;-76
2022/03/24 08:28:05;;;;;;;48.08;30.37;;;;;;;;;;4405570;32;19979;-76
2022/03/24 08:30:30;;;;;;;;;;;;;;;;;;4405690;32;20458;-76
2022/03/24 08:32:55;;;;;;;58.30;32.95;;;;;;;;;;4404313;32;19965;-76
2022/03/24 08:35:20;;;;;;;;;;;;;;;;;;4405391;32;20031;-77
2022/03/24 08:37:46;;;;;;;50.88;32.15;;;;;;;;;;4403590;32;20010;-77
2022/03/24 08:40:11;;;;;;;;;;;;;;;;;;4404242;32;20463;-76
2022/03/24 08:42:37;;;;;;;48.65;29.98;;;;;;;;;;4405410;32;20024;-77
2022/03/24 08:45:02;;;;;;;;;;;;;;;;;;4406464;32;20153;-76
2022/03/24 08:47:27;;;;;;;37.97;26.95;;;;;;;;;;4414075;32;20029;-77
2022/03/24 08:49:52;;;;;;;;;;;;;;;;;;4415759;32;20061;-76
2022/03/24 08:52:20;;;;;;;40.50;26.83;;;;;;;;;;4404051;32;19976;-76
2022/03/24 08:54:45;;;;;;;55.63;26.95;;;;;;;;;;4403782;32;20283;-76
2022/03/24 08:57:11;;;;;;;48.53;29.12;;;;;;;;;;4403364;32;20321;-77
2022/03/24 08:59:36;;;;;;;;;;;;;;;;;;4406152;32;20052;-76
2022/03/24 09:02:02;;;;;;;44.60;27.75;;;;;;;;;;4402770;32;19971;-76
2022/03/24 09:04:27;;;;;;;44.42;28.02;;;;;;;;;;4404758;32;20439;-77
2022/03/24 09:06:53;;;;;;;38.45;27.73;;;;;;;;;;4401451;32;20022;-77
2022/03/24 09:09:18;;;;;;;;;;;;;;;;;;4402235;32;20030;-76
2022/03/24 09:11:43;;;;;;;42.20;27.48;;;;;;;;;;4402182;32;19949;-77
2022/03/24 09:14:08;;;;;;;39.80;27.50;;;;;;;;;;4403498;32;20119;-76
2022/03/24 09:16:33;;;;;;;;;;;;;;;;;;4406044;32;20048;-76
2022/03/24 09:18:59;;;;;;;38.15;26.42;;;;;;;;;;4404041;32;20259;-76
2022/03/24 09:21:24;;;;;;;36.20;25.98;;;;;;;;;;4402149;32;20056;-78
2022/03/24 09:23:49;;;;;;;;;;;;;;;;;;4403321;32;20062;-76
2022/03/24 09:26:14;;;;;;;43.90;27.00;;;;;;;;;;4405289;32;19997;-76
2022/03/24 09:28:40;;;;;;;;;;;;;;;;;;4404111;32;20118;-76
2022/03/24 09:31:05;;;;;;;35.67;26.95;;;;;;;;;;4403756;32;19944;-77
2022/03/24 09:33:30;;;;;;;36.00;24.07;;;;;;;;;;4404566;32;20034;-77
2022/03/24 09:35:56;;;;;;;;;;;;;;;;;;4403551;32;20119;-77
2022/03/24 09:38:21;;;;;;;33.53;24.95;;;;;;;;;;4402176;32;19941;-77
2022/03/24 09:40:46;;;;;;;;;;;;;;;;;;4403752;32;20043;-76
2022/03/24 09:43:12;;;;;;;40.20;25.27;;;;;;;;;;4405464;32;20286;-77
2022/03/24 09:45:38;;;;;;;36.42;26.10;;;;;;;;;;4404630;32;20197;-77
2022/03/24 09:48:05;;;;;;;36.15;25.98;;;;;;;;;;4401950;32;20443;-77
2022/03/24 09:50:30;;;;;;;37.20;26.15;;;;;;;;;;4402389;32;20058;-76
2022/03/24 09:52:57;;;;;;;33.13;25.02;;;;;;;;;;4402889;32;20168;-77
2022/03/24 09:55:22;;;;;;;33.80;23.87;;;;;;;;;;4405406;32;20096;-76
2022/03/24 09:57:47;;;;;;;33.80;22.27;;;;;;;;;;4406345;32;20407;-77
2022/03/24 10:00:12;;;;;;;;;;;;;;;;;;4405806;32;20213;-77
2022/03/24 10:02:37;;;;;;;30.37;21.42;;;;;;;;;;4406528;32;19933;-77
2022/03/24 10:05:03;;;;;;;28.70;22.48;;;;;;;;;;4404449;32;20053;-77
2022/03/24 10:07:29;;;;;;;;;;;;;;;;;;4405269;32;20145;-77
2022/03/24 10:09:56;;;;;;;31.57;22.57;;;;;;;;;;4404946;32;20113;-76
2022/03/24 10:12:22;;;;;;;29.55;22.65;;;;;;;;;;4405667;32;20093;-76
2022/03/24 10:14:56;;;;;;;29.75;22.35;;;;;;;;;;4406002;32;20095;-76
2022/03/24 10:17:21;;;;;;;39.55;24.67;;;;;;;;;;4404551;32;20072;-76
2022/03/24 10:19:57;;;;;;;31.37;24.10;;;;;;;;;;4405446;32;20022;-77
2022/03/24 10:22:22;;;;;;;30.42;22.55;;;;;;;;;;4404379;32;20023;-77
2022/03/24 10:24:47;;;;;;;37.72;24.63;;;;;;;;;;4406931;32;20049;-76
2022/03/24 10:27:13;;;;;;;;;;;;;;;;;;4405488;32;20070;-77
2022/03/24 10:29:39;;;;;;;32.72;23.40;;;;;;;;;;4404401;32;19945;-75
2022/03/24 10:32:09;;;;;;;31.50;22.52;;;;;;;;;;4403413;32;20034;-76
2022/03/24 10:34:34;;;;;;;36.13;23.87;;;;;;;;;;4404656;32;20014;-76
2022/03/24 10:37:04;;;;;;;33.75;24.42;;;;;;;;;;4403955;32;20057;-76
2022/03/24 10:39:30;;;;;;;30.75;23.90;;;;;;;;;;4403552;32;20256;-76
2022/03/24 10:42:09;;;;;;;31.20;22.75;;;;;;;;;;4403959;32;20392;-75
2022/03/24 10:44:34;;;;;;;31.80;22.87;;;;;;;;;;4406121;32;20026;-75
2022/03/24 10:46:59;;;;;;;35.33;23.05;;;;;;;;;;4405562;32;20392;-76
2022/03/24 10:49:26;;;;;;;35.47;22.87;;;;;;;;;;4404821;32;20052;-75
2022/03/24 10:51:52;;;;;;;38.42;22.95;;;;;;;;;;4405767;32;20022;-75
2022/03/24 10:54:36;;;;;;;26.52;21.27;;;;;;;;;;4406921;32;20102;-76
2022/03/24 10:57:03;;;;;;;28.30;22.17;;;;;;;;;;4408060;32;20081;-76
2022/03/24 10:59:58;;;;;;;28.90;22.48;;;;;;;;;;4408390;32;20061;-77
2022/03/24 11:02:24;;;;;;;32.72;21.98;;;;;;;;;;4420272;32;20031;-77
2022/03/24 11:04:51;;;;;;;32.88;23.27;;;;;;;;;;4408341;32;20098;-77
2022/03/24 11:07:26;;;;;;;28.95;22.80;;;;;;;;;;4407193;32;20045;-76
2022/03/24 11:09:52;;;;;;;33.85;23.45;;;;;;;;;;4404278;32;20042;-76
2022/03/24 11:12:27;;;;;;;31.15;22.70;;;;;;;;;;4405007;32;20026;-76
2022/03/24 11:15:03;;;;;;;29.17;22.08;;;;;;;;;;4403930;32;20060;-76
2022/03/24 11:17:30;;;;;;;31.77;23.98;;;;;;;;;;4404322;32;20079;-76
2022/03/24 11:20:04;;;;;;;32.20;23.87;;;;;;;;;;4403143;32;20056;-76
2022/03/24 11:22:48;;;;;;;28.00;20.23;;;;;;;;;;4403573;32;20100;-75
2022/03/24 11:25:13;;;;;;;28.40;20.42;;;;;;;;;;4403698;32;20157;-76
2022/03/24 11:27:39;;;;;;;25.05;19.37;;;;;;;;;;4404153;32;20026;-75
2022/03/24 11:30:05;;;;;;;23.98;19.87;;;;;;;;;;4404690;32;20034;-76
2022/03/24 11:32:31;;;;;;;25.10;20.70;;;;;;;;;;4402672;32;20133;-76
2022/03/24 11:34:58;;;;;;;28.95;23.38;;;;;;;;;;4404917;32;20448;-75
2022/03/24 11:37:23;;;;;;;36.33;22.90;;;;;;;;;;4402924;32;20096;-76
2022/03/24 11:40:07;;;;;;;28.42;21.67;;;;;;;;;;4403388;32;20042;-76
2022/03/24 11:42:34;;;;;;;30.60;22.98;;;;;;;;;;4402595;32;20359;-76
2022/03/24 11:45:06;;;;;;;40.90;25.20;;;;;;;;;;4402474;32;20050;-75
2022/03/24 11:47:48;;;;;;;26.45;21.27;;;;;;;;;;4404553;32;20041;-77
2022/03/24 11:50:17;;;;;;;30.05;21.42;;;;;;;;;;4403541;32;20038;-75
2022/03/24 11:52:42;;;;;;;34.72;21.00;;;;;;;;;;4402690;32;20166;-76
2022/03/24 11:55:14;;;;;;;31.95;21.95;;;;;;;;;;4404312;32;20022;-76
2022/03/24 11:57:39;;;;;;;26.87;21.00;;;;;;;;;;4404866;32;20241;-76
2022/03/24 12:00:14;;;;;;;31.52;22.23;;;;;;;;;;4405951;32;20461;-77
2022/03/24 12:02:39;;;;;;;34.45;21.80;;;;;;;;;;4403587;32;20065;-76
2022/03/24 12:05:04;;;;;;;34.95;20.12;;;;;;;;;;4405234;32;20078;-75
2022/03/24 12:07:30;;;;;;;33.45;20.80;;;;;;;;;;4402798;32;20062;-77
2022/03/24 12:09:56;;;;;;;34.00;19.87;;;;;;;;;;4405125;32;20014;-76
2022/03/24 12:12:21;;;;;;;29.23;19.83;;;;;;;;;;4405022;32;20110;-77
2022/03/24 12:14:47;;;;;;;27.48;19.77;;;;;;;;;;4401313;32;20035;-76
2022/03/24 12:17:22;;;;;;;38.58;20.88;;;;;;;;;;4403924;32;20153;-77
2022/03/24 12:19:47;;;;;;;29.75;20.52;;;;;;;;;;4402375;32;20048;-76
2022/03/24 12:22:25;;;;;;;30.62;20.92;;;;;;;;;;4402807;32;20093;-76
2022/03/24 12:24:50;;;;;;;31.48;22.48;;;;;;;;;;4402488;32;20173;-77
2022/03/24 12:27:16;;;;;;;42.53;22.83;;;;;;;;;;4402038;32;20076;-77
2022/03/24 12:29:41;;;;;;;29.27;20.90;;;;;;;;;;4401069;32;20052;-77
2022/03/24 12:32:09;;;;;;;29.17;20.02;;;;;;;;;;4403986;32;20052;-77
2022/03/24 12:34:38;;;;;;;29.00;19.73;;;;;;;;;;4405901;32;20031;-75
2022/03/24 12:37:03;;;;;;;30.05;20.23;;;;;;;;;;4404754;32;20401;-77
2022/03/24 12:39:30;;;;;;;30.33;21.90;;;;;;;;;;4404293;32;20064;-76
2022/03/24 12:42:06;;;;;;;28.60;20.52;;;;;;;;;;4405740;32;20042;-77
2022/03/24 12:44:50;;;;;;;27.85;20.20;;;;;;;;;;4404400;32;20117;-77
2022/03/24 12:47:29;;;;;;;25.23;19.37;;;;;;;;;;4405073;32;20030;-77
2022/03/24 12:49:56;;;;;;;28.98;21.00;;;;;;;;;;4404032;32;20143;-77
2022/03/24 12:52:25;;;;;;;25.73;20.33;;;;;;;;;;4404688;32;20144;-78
2022/03/24 12:54:52;;;;;;;38.85;22.23;;;;;;;;;;4405717;32;20034;-76
2022/03/24 12:57:19;;;;;;;28.62;22.52;;;;;;;;;;4405142;32;20053;-77
2022/03/24 12:59:45;;;;;;;34.42;21.62;;;;;;;;;;4404329;32;20045;-76
2022/03/24 13:02:11;;;;;;;34.35;22.90;;;;;;;;;;4404617;32;20135;-76
2022/03/24 13:04:36;;;;;;;35.60;22.83;;;;;;;;;;4406390;32;20096;-78
2022/03/24 13:07:02;;;;;;;29.73;22.00;;;;;;;;;;4404670;32;20321;-77
2022/03/24 13:09:27;;;;;;;32.03;22.27;;;;;;;;;;4405193;32;20035;-76
2022/03/24 13:12:05;;;;;;;32.15;22.23;;;;;;;;;;4411784;32;20056;-76
2022/03/24 13:14:31;;;;;;;30.23;19.42;;;;;;;;;;4420209;32;20073;-77
2022/03/24 13:17:10;;;;;;;36.42;21.40;;;;;;;;;;4419106;32;20030;-76
2022/03/24 13:19:36;;;;;;;27.60;19.52;;;;;;;;;;4406533;32;20019;-77
2022/03/24 13:22:17;;;;;;;28.60;21.65;;;;;;;;;;4404267;32;20026;-77
2022/03/24 13:24:43;;;;;;;34.00;21.33;;;;;;;;;;4409666;32;20026;-77
2022/03/24 13:27:08;;;;;;;25.15;20.50;;;;;;;;;;4412527;32;20041;-78
2022/03/24 13:29:46;;;;;;;28.02;20.98;;;;;;;;;;4408177;32;20027;-78
2022/03/24 13:32:13;;;;;;;27.75;21.45;;;;;;;;;;4408231;32;20083;-77
2022/03/24 13:34:38;;;;;;;32.72;21.30;;;;;;;;;;4406997;32;20390;-77
2022/03/24 13:37:11;;;;;;;30.65;22.62;;;;;;;;;;4409076;32;20023;-78
2022/03/24 13:39:37;;;;;;;40.10;21.73;;;;;;;;;;4406006;32;20386;-78
2022/03/24 13:42:07;;;;;;;37.65;23.52;;;;;;;;;;4408367;32;20026;-77
2022/03/24 13:44:34;;;;;;;44.33;26.08;;;;;;;;;;4406850;32;20034;-76
2022/03/24 13:46:59;;;;;;;39.97;22.40;;;;;;;;;;4405114;32;20045;-78
2022/03/24 13:49:25;;;;;;;29.87;23.33;;;;;;;;;;4407230;32;20102;-77
2022/03/24 13:51:51;;;;;;;32.75;22.00;;;;;;;;;;4407802;32;20030;-77
2022/03/24 13:54:22;;;;;;;32.20;23.70;;;;;;;;;;4409388;32;20106;-79
2022/03/24 13:56:47;;;;;;;33.40;23.77;;;;;;;;;;4417693;32;20031;-78
2022/03/24 13:59:12;;;;;;;38.40;24.03;;;;;;;;;;4417361;32;20027;-76
2022/03/24 14:01:38;;;;;;;29.35;24.02;;;;;;;;;;4418520;32;20171;-77
2022/03/24 14:04:15;;;;;;;31.75;24.15;;;;;;;;;;4416057;32;20077;-77
2022/03/24 14:06:40;;;;;;;41.72;24.87;;;;;;;;;;4408914;32;20101;-78
2022/03/24 14:09:05;;;;;;;36.45;25.95;;;;;;;;;;4407724;32;20105;-77
2022/03/24 14:11:31;;;;;;;36.53;26.48;;;;;;;;;;4409810;32;20117;-76
2022/03/24 14:13:58;;;;;;;32.58;23.90;;;;;;;;;;4407769;32;20034;-75
2022/03/24 14:16:25;;;;;;;35.10;25.55;;;;;;;;;;4410324;32;20061;-77
2022/03/24 14:19:05;;;;;;;31.62;25.33;;;;;;;;;;4408192;32;20074;-77
2022/03/24 14:21:43;;;;;;;33.10;26.75;;;;;;;;;;4405636;32;20132;-77
2022/03/24 14:24:08;;;;;;;37.92;25.67;;;;;;;;;;4408355;32;20094;-77
2022/03/24 14:26:34;;;;;;;32.83;26.08;;;;;;;;;;4406089;32;20022;-76
2022/03/24 14:29:00;;;;;;;36.03;26.58;;;;;;;;;;4407773;32;20022;-77
2022/03/24 14:31:30;;;;;;;50.25;27.42;;;;;;;;;;4409540;32;20053;-78
2022/03/24 14:33:56;;;;;;;37.13;27.48;;;;;;;;;;4408103;32;20060;-78
2022/03/24 14:36:22;;;;;;;39.22;28.15;;;;;;;;;;4408444;32;20106;-77
2022/03/24 14:39:08;;;;;;;37.70;26.58;;;;;;;;;;4406485;32;20053;-77
2022/03/24 14:41:35;;;;;;;34.80;28.67;;;;;;;;;;4408050;32;20359;-78